Terminal Aerodrome Forecast
Issued by NWS Dodge City, KS

Home | Current Version | Previous Version | Text Only | Print | Product List | Glossary On
Versions: 1 2 3 4 5 6 7 8 9 10 11 12 13 14 15 16 17 18 19 20 21
000
FTUS43 KDDC 201602 AAE
TAFDDC
TAF AMD
KDDC 201602Z 2016/2112 34021G32KT P6SM SKC
     FM210000 33010KT P6SM SKC=

USA.gov is the U.S. government's official web portal to all federal, state and local government web resources and services.